»·PEaware :: QAF244 KSAN-KSNA

QAF244 :: KSAN-KSNA

FLIGHT INFORMATION

Flight Status: Arrived
Operator: Unknown
More flights by this operator :: More flights under this callsign
Pilot: Cullen C. (7783)
Aircraft: AIRBUS A320
(A320)
More flights by this aircraft type
Origin: KSAN San Diego Intl-Lindbergh
United States
Destination: KSNA John Wayne-Orange Co
United States
More flights between these airports :: More routes between these airports
Route: +PEBLE6 SLI
File this flight plan on PilotEdge
Remarks:
Altitude:
(Current/Filed)
14,000ft
Speed:
(Current/Filed)
380kts
Departed: 03-Dec-17 08:33 PM
Arrived: 03-Dec-17 09:03 PM
Distance/Time
Traveled:
66nm/0:30
Distance/Time
To Go:
Arrived

Flight Plot

Page will automatically refresh every two minutes.


Map Options




Map Legend


Flown Route
Filed Route
Departure Airport
Arrival Airport
Navaid (VOR, NDB)
Fix

Horizontal Profiles

Position Reports

Time Latitude Longitude Heading Altitude Ground
Speed
03-Dec-17 20:23 32.732263 -117.177268 157 33ft 0kts
03-Dec-17 20:24 32.732263 -117.177268 157 33ft 0kts
03-Dec-17 20:25 32.732263 -117.177268 157 33ft 0kts
03-Dec-17 20:26 32.732263 -117.177268 157 33ft 0kts
03-Dec-17 20:27 32.732263 -117.177268 157 33ft 0kts
03-Dec-17 20:28 32.732263 -117.177268 157 33ft 0kts
03-Dec-17 20:29 32.732263 -117.177268 157 33ft 0kts
03-Dec-17 20:30 32.732263 -117.177268 157 33ft 0kts
03-Dec-17 20:31 32.732263 -117.177268 157 33ft 0kts
03-Dec-17 20:32 32.732263 -117.177268 157 33ft 0kts
03-Dec-17 20:33 32.732263 -117.177268 157 33ft 0kts
03-Dec-17 20:34 32.732263 -117.177268 157 33ft 0kts
03-Dec-17 20:35 32.732263 -117.177268 157 33ft 0kts
03-Dec-17 20:36 32.732262 -117.177268 157 33ft 0kts
03-Dec-17 20:37 32.731002 -117.175607 136 32ft 0kts
03-Dec-17 20:38 32.734988 -117.194366 297 590ft 182kts
03-Dec-17 20:39 32.768528 -117.254955 305 4793ft 262kts
03-Dec-17 20:40 32.810835 -117.328753 306 9278ft 279kts
03-Dec-17 20:41 32.850639 -117.403664 305 9995ft 263kts
03-Dec-17 20:42 32.896252 -117.471522 327 10008ft 268kts
03-Dec-17 20:43 32.961955 -117.512274 330 10017ft 268kts
03-Dec-17 20:44 33.016278 -117.569558 304 10017ft 264kts
03-Dec-17 20:45 33.058503 -117.641412 305 10017ft 265kts
03-Dec-17 20:46 33.100922 -117.711514 307 10018ft 265kts
03-Dec-17 20:47 33.141902 -117.774540 307 10019ft 265kts
03-Dec-17 20:48 33.191146 -117.838871 333 10012ft 270kts
03-Dec-17 20:49 33.263047 -117.865399 339 9990ft 272kts
03-Dec-17 20:50 33.335300 -117.891590 339 9992ft 272kts
03-Dec-17 20:51 33.407345 -117.917716 339 9765ft 267kts
03-Dec-17 20:52 33.478254 -117.943480 341 8051ft 268kts
03-Dec-17 20:53 33.550466 -117.969740 343 7018ft 281kts
03-Dec-17 20:54 33.624315 -117.996669 343 7014ft 278kts
03-Dec-17 20:55 33.696802 -118.023151 343 7042ft 276kts
03-Dec-17 20:56 33.766460 -118.029813 46 7044ft 249kts
03-Dec-17 20:57 33.784407 -117.962308 52 6829ft 209kts
03-Dec-17 20:58 33.818556 -117.908802 52 6250ft 198kts
03-Dec-17 20:59 33.851277 -117.857338 52 5095ft 203kts
03-Dec-17 21:00 33.885943 -117.802645 52 3629ft 206kts
03-Dec-17 21:01 33.895151 -117.749286 152 3054ft 178kts
03-Dec-17 21:02 33.856192 -117.755066 206 3020ft 134kts
03-Dec-17 21:03 33.823220 -117.775420 208 3020ft 133kts
03-Dec-17 21:04 33.790647 -117.796044 207 2460ft 133kts
03-Dec-17 21:05 33.756215 -117.817845 207 1729ft 144kts
03-Dec-17 21:06 33.722905 -117.839025 208 918ft 125kts
03-Dec-17 21:07 33.692303 -117.858301 207 314ft 123kts
03-Dec-17 21:08 33.670373 -117.872199 200 65ft 22kts
03-Dec-17 21:09 33.666993 -117.873025 213 65ft 16kts
03-Dec-17 21:10 33.665618 -117.873419 123 65ft 0kts
03-Dec-17 21:11 33.665618 -117.873419 123 65ft 0kts
03-Dec-17 21:12 33.665618 -117.873419 123 65ft 0kts
03-Dec-17 21:13 33.665618 -117.873419 123 65ft 0kts
03-Dec-17 21:14 33.665618 -117.873419 123 65ft 0kts
03-Dec-17 21:15 33.665618 -117.873419 123 65ft 0kts
03-Dec-17 21:16 33.665618 -117.873419 123 65ft 0kts

Navigation Log

Ident Type
1. KSAN Airport
2. MELDY Fix
3. PEBLE Fix
4. SLI Navaid
5. KSNA Airport